Sunday, January 20, 2019, 6:56 AM GMT
Back to Local

CWKG, Kejimkujik 1, N. S.

Location: , , Canada Lat: 44.433
Local Time: 6:56 AM GMT ( 6:56 GMT) Lon: -65.2
Time Zone: GMT Elev: 416 ft

Show me the last for .
Show Decoded

2019-01-20 06:00 METAR CWKG 200600Z AUTO 09003KT M11/M17 RMK AO1 SOG 07 5006 SLP273 T11061171 =
2019-01-20 05:00 METAR CWKG 200500Z AUTO 08004KT M11/M17 RMK AO1 SOG 07 8005 SLP270 T11071169 =
2019-01-20 04:00 METAR CWKG 200400Z AUTO 09003KT M10/M17 RMK AO1 SOG 07 6008 SLP275 T10951170 =
2019-01-20 03:00 METAR CWKG 200300Z AUTO 09003KT M10/M17 RMK AO1 SOG 07 5008 SLP279 T10951168 =
2019-01-20 02:00 METAR CWKG 200200Z AUTO 08004KT M11/M17 RMK AO1 SOG 07 8002 SLP276 T11061173 =
2019-01-20 01:00 METAR CWKG 200100Z AUTO 07003KT M10/M18 RMK AO1 SOG 07 0014 SLP284 T11041177 =
2019-01-20 00:00 METAR CWKG 200000Z AUTO 02003KT M10/M17 RMK AO1 SOG 07 1029 SLP288 T11011173 =
2019-01-19 23:00 METAR CWKG 192300Z AUTO 02003KT M10/M17 RMK AO1 SOG 07 3021 SLP277 T10991170 =
2019-01-19 22:00 METAR CWKG 192200Z AUTO 36003KT M10/M18 RMK AO1 SOG 07 3016 SLP269 T10971178 =
2019-01-19 21:00 METAR CWKG 192100Z AUTO 03003KT M09/M19 RMK AO1 SOG 07 1010 SLP257 T10921189 =
2019-01-19 20:00 METAR CWKG 192000Z AUTO 35003KT M08/M18 RMK AO1 SOG 07 3008 SLP255 T10831177 =
2019-01-19 19:00 METAR CWKG 191900Z AUTO 36003KT M07/M18 RMK AO1 SOG 07 3002 SLP252 T10741184 =
2019-01-19 18:00 METAR CWKG 191800Z AUTO 35005KT M07/M18 RMK AO1 SOG 07 1004 SLP247 T10701175 =
2019-01-19 17:00 METAR CWKG 191700Z AUTO 36004KT M07/M17 RMK AO1 SOG 07 0013 SLP247 T10721172 =
2019-01-19 16:00 METAR CWKG 191600Z AUTO 35005KT M07/M16 RMK AO1 SOG 07 1030 SLP250 T10681158 =
2019-01-19 15:00 METAR CWKG 191500Z AUTO 35004KT M06/M14 RMK AO1 SOG 07 2032 SLP242 T10641142 =
2019-01-19 14:00 METAR CWKG 191400Z AUTO 35005KT M07/M14 RMK AO1 SOG 07 3032 SLP233 T10721144 =
2019-01-19 13:00 METAR CWKG 191300Z AUTO 33004KT M08/M14 RMK AO1 SOG 07 3026 SLP219 T10791142 =
2019-01-19 12:00 METAR CWKG 191200Z AUTO 33004KT M08/M13 RMK AO1 SOG 07 1031 SLP210 T10801128
                 50002 =
2019-01-19 11:00 METAR CWKG 191100Z AUTO 34004KT M07/M12 RMK AO1 SOG 07 1033 SLP201 T10701117
                 50002 =
2019-01-19 10:00 METAR CWKG 191000Z AUTO 35005KT M05/M09 RMK AO1 SOG 07 3031 PK WND 01018/0907
                 SLP192 T10511089 50002 =
2019-01-19 09:00 METAR CWKG 190900Z AUTO 33006G15KT M03/M05 RMK AO1 SOG 07 3021 PK WND 34019/0840
                 SLP178 T10291053 50002 =
2019-01-19 08:00 METAR CWKG 190800Z AUTO 32004KT M02/M03 RMK AO1 2PAST HR SOG 07 3007 SLP166
                 P0001 T10221027 50002 =
2019-01-19 07:00 METAR CWKG 190700Z AUTO 26002KT M03/M03 RMK AO1 SOG 07 5003 SLP161 T10291034 =

Support USWX by starting your Amazon purchase here.